sensor_id;sensor_type;location;lat;lon;timestamp;P1;durP1;ratioP1;P2;durP2;ratioP2
6149;SDS011;3106;42.670;23.318;2023-08-17T00:02:19;12.40;;;8.17;;
6149;SDS011;3106;42.670;23.318;2023-08-17T00:04:46;16.40;;;8.07;;
6149;SDS011;3106;42.670;23.318;2023-08-17T00:07:13;11.70;;;8.03;;
6149;SDS011;3106;42.670;23.318;2023-08-17T00:09:40;15.07;;;8.83;;
6149;SDS011;3106;42.670;23.318;2023-08-17T00:12:07;14.37;;;7.50;;
6149;SDS011;3106;42.670;23.318;2023-08-17T00:14:35;11.93;;;8.10;;
6149;SDS011;3106;42.670;23.318;2023-08-17T00:17:02;15.90;;;8.80;;
6149;SDS011;3106;42.670;23.318;2023-08-17T00:19:29;11.37;;;7.47;;
6149;SDS011;3106;42.670;23.318;2023-08-17T00:21:56;19.60;;;8.07;;
6149;SDS011;3106;42.670;23.318;2023-08-17T00:24:23;18.23;;;8.43;;
6149;SDS011;3106;42.670;23.318;2023-08-17T00:26:50;13.10;;;7.93;;
6149;SDS011;3106;42.670;23.318;2023-08-17T00:29:16;16.60;;;8.23;;
6149;SDS011;3106;42.670;23.318;2023-08-17T00:31:45;15.80;;;7.60;;
6149;SDS011;3106;42.670;23.318;2023-08-17T00:34:12;12.73;;;7.23;;
6149;SDS011;3106;42.670;23.318;2023-08-17T00:36:39;14.87;;;7.53;;
6149;SDS011;3106;42.670;23.318;2023-08-17T00:39:06;10.73;;;7.10;;
6149;SDS011;3106;42.670;23.318;2023-08-17T00:41:33;13.37;;;7.23;;
6149;SDS011;3106;42.670;23.318;2023-08-17T00:44:00;15.93;;;6.83;;
6149;SDS011;3106;42.670;23.318;2023-08-17T00:46:27;12.57;;;6.90;;
6149;SDS011;3106;42.670;23.318;2023-08-17T00:48:55;8.33;;;6.43;;
6149;SDS011;3106;42.670;23.318;2023-08-17T00:51:23;9.07;;;6.63;;
6149;SDS011;3106;42.670;23.318;2023-08-17T00:53:51;15.23;;;7.47;;
6149;SDS011;3106;42.670;23.318;2023-08-17T00:56:21;13.97;;;6.97;;
6149;SDS011;3106;42.670;23.318;2023-08-17T00:58:48;12.03;;;7.50;;
6149;SDS011;3106;42.670;23.318;2023-08-17T01:01:15;15.13;;;6.93;;
6149;SDS011;3106;42.670;23.318;2023-08-17T01:03:43;11.93;;;6.27;;
6149;SDS011;3106;42.670;23.318;2023-08-17T01:06:11;9.60;;;6.20;;
6149;SDS011;3106;42.670;23.318;2023-08-17T01:08:38;8.00;;;5.80;;
6149;SDS011;3106;42.670;23.318;2023-08-17T01:11:08;12.50;;;6.60;;
6149;SDS011;3106;42.670;23.318;2023-08-17T01:13:47;12.10;;;6.43;;
6149;SDS011;3106;42.670;23.318;2023-08-17T01:16:20;8.20;;;5.37;;
6149;SDS011;3106;42.670;23.318;2023-08-17T01:18:52;16.43;;;5.60;;
6149;SDS011;3106;42.670;23.318;2023-08-17T01:21:23;10.23;;;5.07;;
6149;SDS011;3106;42.670;23.318;2023-08-17T01:23:52;10.60;;;5.80;;
6149;SDS011;3106;42.670;23.318;2023-08-17T01:26:24;10.10;;;5.77;;
6149;SDS011;3106;42.670;23.318;2023-08-17T01:28:51;7.70;;;5.17;;
6149;SDS011;3106;42.670;23.318;2023-08-17T01:31:19;7.63;;;5.40;;
6149;SDS011;3106;42.670;23.318;2023-08-17T01:33:50;7.50;;;4.80;;
6149;SDS011;3106;42.670;23.318;2023-08-17T01:36:22;11.50;;;4.97;;
6149;SDS011;3106;42.670;23.318;2023-08-17T01:38:54;8.37;;;5.07;;
6149;SDS011;3106;42.670;23.318;2023-08-17T01:41:23;10.30;;;4.67;;
6149;SDS011;3106;42.670;23.318;2023-08-17T01:43:52;9.87;;;4.90;;
6149;SDS011;3106;42.670;23.318;2023-08-17T01:46:20;6.17;;;4.77;;
6149;SDS011;3106;42.670;23.318;2023-08-17T01:48:47;8.03;;;5.17;;
6149;SDS011;3106;42.670;23.318;2023-08-17T01:51:16;8.40;;;4.73;;
6149;SDS011;3106;42.670;23.318;2023-08-17T01:53:45;8.30;;;4.47;;
6149;SDS011;3106;42.670;23.318;2023-08-17T01:56:13;16.17;;;5.10;;
6149;SDS011;3106;42.670;23.318;2023-08-17T01:58:40;9.07;;;4.40;;
6149;SDS011;3106;42.670;23.318;2023-08-17T02:01:07;9.23;;;4.77;;
6149;SDS011;3106;42.670;23.318;2023-08-17T02:03:34;7.97;;;4.70;;
6149;SDS011;3106;42.670;23.318;2023-08-17T02:06:01;10.60;;;5.33;;
6149;SDS011;3106;42.670;23.318;2023-08-17T02:08:29;10.73;;;4.70;;
6149;SDS011;3106;42.670;23.318;2023-08-17T02:10:56;8.40;;;4.20;;
6149;SDS011;3106;42.670;23.318;2023-08-17T02:13:24;8.27;;;4.70;;
6149;SDS011;3106;42.670;23.318;2023-08-17T02:15:52;6.70;;;4.83;;
6149;SDS011;3106;42.670;23.318;2023-08-17T02:18:19;16.63;;;5.07;;
6149;SDS011;3106;42.670;23.318;2023-08-17T02:20:46;15.00;;;4.70;;
6149;SDS011;3106;42.670;23.318;2023-08-17T02:23:13;7.43;;;4.90;;
6149;SDS011;3106;42.670;23.318;2023-08-17T02:25:40;12.67;;;5.17;;
6149;SDS011;3106;42.670;23.318;2023-08-17T02:28:07;6.53;;;4.40;;
6149;SDS011;3106;42.670;23.318;2023-08-17T02:30:35;11.60;;;5.20;;
6149;SDS011;3106;42.670;23.318;2023-08-17T02:33:02;11.80;;;5.20;;
6149;SDS011;3106;42.670;23.318;2023-08-17T02:35:30;12.50;;;5.07;;
6149;SDS011;3106;42.670;23.318;2023-08-17T02:37:57;7.00;;;5.17;;
6149;SDS011;3106;42.670;23.318;2023-08-17T02:40:24;9.77;;;5.33;;
6149;SDS011;3106;42.670;23.318;2023-08-17T02:42:51;6.23;;;4.47;;
6149;SDS011;3106;42.670;23.318;2023-08-17T02:45:17;8.50;;;5.30;;
6149;SDS011;3106;42.670;23.318;2023-08-17T02:47:46;6.47;;;4.60;;
6149;SDS011;3106;42.670;23.318;2023-08-17T02:50:13;11.83;;;4.60;;
6149;SDS011;3106;42.670;23.318;2023-08-17T02:52:39;9.07;;;4.90;;
6149;SDS011;3106;42.670;23.318;2023-08-17T02:55:07;12.50;;;5.00;;
6149;SDS011;3106;42.670;23.318;2023-08-17T02:57:34;14.43;;;5.43;;
6149;SDS011;3106;42.670;23.318;2023-08-17T03:00:00;7.37;;;4.70;;
6149;SDS011;3106;42.670;23.318;2023-08-17T03:02:27;14.23;;;5.23;;
6149;SDS011;3106;42.670;23.318;2023-08-17T03:04:55;14.83;;;5.30;;
6149;SDS011;3106;42.670;23.318;2023-08-17T03:07:22;11.90;;;4.60;;
6149;SDS011;3106;42.670;23.318;2023-08-17T03:09:49;7.13;;;4.97;;
6149;SDS011;3106;42.670;23.318;2023-08-17T03:12:16;9.83;;;5.10;;
6149;SDS011;3106;42.670;23.318;2023-08-17T03:14:43;9.70;;;5.23;;
6149;SDS011;3106;42.670;23.318;2023-08-17T03:17:09;12.77;;;5.50;;
6149;SDS011;3106;42.670;23.318;2023-08-17T03:19:36;12.73;;;5.00;;
6149;SDS011;3106;42.670;23.318;2023-08-17T03:22:05;9.57;;;4.87;;
6149;SDS011;3106;42.670;23.318;2023-08-17T03:24:31;7.43;;;4.50;;
6149;SDS011;3106;42.670;23.318;2023-08-17T03:26:58;15.63;;;5.10;;
6149;SDS011;3106;42.670;23.318;2023-08-17T03:29:25;10.30;;;5.27;;
6149;SDS011;3106;42.670;23.318;2023-08-17T03:31:52;7.00;;;5.30;;
6149;SDS011;3106;42.670;23.318;2023-08-17T03:34:19;11.27;;;4.40;;
6149;SDS011;3106;42.670;23.318;2023-08-17T03:36:46;17.70;;;5.10;;
6149;SDS011;3106;42.670;23.318;2023-08-17T03:39:14;7.87;;;4.70;;
6149;SDS011;3106;42.670;23.318;2023-08-17T03:41:41;12.80;;;5.07;;
6149;SDS011;3106;42.670;23.318;2023-08-17T03:44:08;13.53;;;4.90;;
6149;SDS011;3106;42.670;23.318;2023-08-17T03:46:35;13.63;;;4.73;;
6149;SDS011;3106;42.670;23.318;2023-08-17T03:49:01;14.33;;;4.90;;
6149;SDS011;3106;42.670;23.318;2023-08-17T03:51:29;9.33;;;4.73;;
6149;SDS011;3106;42.670;23.318;2023-08-17T03:53:55;8.67;;;4.40;;
6149;SDS011;3106;42.670;23.318;2023-08-17T03:56:24;6.70;;;4.80;;
6149;SDS011;3106;42.670;23.318;2023-08-17T03:58:52;6.60;;;4.33;;
6149;SDS011;3106;42.670;23.318;2023-08-17T04:01:19;7.57;;;5.03;;
6149;SDS011;3106;42.670;23.318;2023-08-17T04:03:46;12.33;;;4.93;;
6149;SDS011;3106;42.670;23.318;2023-08-17T04:06:13;17.77;;;4.60;;
6149;SDS011;3106;42.670;23.318;2023-08-17T04:08:40;7.60;;;4.97;;
6149;SDS011;3106;42.670;23.318;2023-08-17T04:11:07;13.30;;;5.70;;
6149;SDS011;3106;42.670;23.318;2023-08-17T04:13:35;6.73;;;4.60;;
6149;SDS011;3106;42.670;23.318;2023-08-17T04:16:02;18.00;;;5.23;;
6149;SDS011;3106;42.670;23.318;2023-08-17T04:18:28;7.03;;;4.60;;
6149;SDS011;3106;42.670;23.318;2023-08-17T04:20:55;9.93;;;4.83;;
6149;SDS011;3106;42.670;23.318;2023-08-17T04:23:22;9.57;;;5.10;;
6149;SDS011;3106;42.670;23.318;2023-08-17T04:25:49;18.17;;;5.87;;
6149;SDS011;3106;42.670;23.318;2023-08-17T04:28:16;16.40;;;5.10;;
6149;SDS011;3106;42.670;23.318;2023-08-17T04:30:44;16.13;;;5.03;;
6149;SDS011;3106;42.670;23.318;2023-08-17T04:33:11;9.90;;;5.00;;
6149;SDS011;3106;42.670;23.318;2023-08-17T04:35:38;10.93;;;5.53;;
6149;SDS011;3106;42.670;23.318;2023-08-17T04:38:05;8.83;;;4.57;;
6149;SDS011;3106;42.670;23.318;2023-08-17T04:40:32;11.33;;;4.07;;
6149;SDS011;3106;42.670;23.318;2023-08-17T04:42:59;12.20;;;5.23;;
6149;SDS011;3106;42.670;23.318;2023-08-17T04:45:26;9.20;;;4.70;;
6149;SDS011;3106;42.670;23.318;2023-08-17T04:47:54;9.77;;;4.80;;
6149;SDS011;3106;42.670;23.318;2023-08-17T04:50:21;18.90;;;5.57;;
6149;SDS011;3106;42.670;23.318;2023-08-17T04:52:48;8.60;;;5.00;;
6149;SDS011;3106;42.670;23.318;2023-08-17T04:55:15;9.20;;;4.67;;
6149;SDS011;3106;42.670;23.318;2023-08-17T04:57:42;11.90;;;4.87;;
6149;SDS011;3106;42.670;23.318;2023-08-17T05:00:09;7.60;;;4.27;;
6149;SDS011;3106;42.670;23.318;2023-08-17T05:02:37;14.03;;;4.10;;
6149;SDS011;3106;42.670;23.318;2023-08-17T05:05:06;18.47;;;4.63;;
6149;SDS011;3106;42.670;23.318;2023-08-17T05:07:34;7.13;;;4.50;;
6149;SDS011;3106;42.670;23.318;2023-08-17T05:10:01;10.63;;;4.80;;
6149;SDS011;3106;42.670;23.318;2023-08-17T05:12:28;17.03;;;5.67;;
6149;SDS011;3106;42.670;23.318;2023-08-17T05:14:55;26.23;;;7.17;;
6149;SDS011;3106;42.670;23.318;2023-08-17T05:17:22;15.53;;;7.27;;
6149;SDS011;3106;42.670;23.318;2023-08-17T05:19:49;10.70;;;6.43;;
6149;SDS011;3106;42.670;23.318;2023-08-17T05:22:18;24.40;;;6.73;;
6149;SDS011;3106;42.670;23.318;2023-08-17T05:24:44;13.93;;;7.00;;
6149;SDS011;3106;42.670;23.318;2023-08-17T05:27:11;11.87;;;6.63;;
6149;SDS011;3106;42.670;23.318;2023-08-17T05:29:38;15.80;;;6.70;;
6149;SDS011;3106;42.670;23.318;2023-08-17T05:32:05;22.27;;;6.40;;
6149;SDS011;3106;42.670;23.318;2023-08-17T05:34:32;11.30;;;6.37;;
6149;SDS011;3106;42.670;23.318;2023-08-17T05:36:59;24.53;;;6.40;;
6149;SDS011;3106;42.670;23.318;2023-08-17T05:39:27;13.07;;;6.80;;
6149;SDS011;3106;42.670;23.318;2023-08-17T05:41:54;11.90;;;5.77;;
6149;SDS011;3106;42.670;23.318;2023-08-17T05:44:20;8.70;;;5.23;;
6149;SDS011;3106;42.670;23.318;2023-08-17T05:46:47;16.23;;;5.20;;
6149;SDS011;3106;42.670;23.318;2023-08-17T05:49:14;13.57;;;5.00;;
6149;SDS011;3106;42.670;23.318;2023-08-17T05:51:41;13.57;;;4.83;;
6149;SDS011;3106;42.670;23.318;2023-08-17T05:54:08;18.90;;;4.70;;
6149;SDS011;3106;42.670;23.318;2023-08-17T05:56:36;8.73;;;5.20;;
6149;SDS011;3106;42.670;23.318;2023-08-17T05:59:03;12.00;;;5.20;;
6149;SDS011;3106;42.670;23.318;2023-08-17T06:01:30;10.80;;;4.80;;
6149;SDS011;3106;42.670;23.318;2023-08-17T06:03:57;12.53;;;4.47;;
6149;SDS011;3106;42.670;23.318;2023-08-17T06:06:24;11.50;;;4.97;;
6149;SDS011;3106;42.670;23.318;2023-08-17T06:08:51;10.27;;;4.60;;
6149;SDS011;3106;42.670;23.318;2023-08-17T06:11:18;12.00;;;4.23;;
6149;SDS011;3106;42.670;23.318;2023-08-17T06:13:46;12.70;;;4.80;;
6149;SDS011;3106;42.670;23.318;2023-08-17T06:16:13;9.40;;;4.57;;
6149;SDS011;3106;42.670;23.318;2023-08-17T06:18:41;8.63;;;4.70;;
6149;SDS011;3106;42.670;23.318;2023-08-17T06:21:07;17.00;;;6.40;;
6149;SDS011;3106;42.670;23.318;2023-08-17T06:23:34;11.23;;;6.40;;
6149;SDS011;3106;42.670;23.318;2023-08-17T06:26:01;14.67;;;6.07;;
6149;SDS011;3106;42.670;23.318;2023-08-17T06:28:28;10.40;;;5.00;;
6149;SDS011;3106;42.670;23.318;2023-08-17T06:30:56;10.50;;;5.30;;
6149;SDS011;3106;42.670;23.318;2023-08-17T06:33:24;8.63;;;5.60;;
6149;SDS011;3106;42.670;23.318;2023-08-17T06:35:51;12.73;;;4.93;;
6149;SDS011;3106;42.670;23.318;2023-08-17T06:38:18;10.73;;;5.10;;
6149;SDS011;3106;42.670;23.318;2023-08-17T06:40:45;15.03;;;5.27;;
6149;SDS011;3106;42.670;23.318;2023-08-17T06:43:13;13.07;;;5.40;;
6149;SDS011;3106;42.670;23.318;2023-08-17T06:45:39;14.20;;;5.47;;
6149;SDS011;3106;42.670;23.318;2023-08-17T06:48:08;17.73;;;7.97;;
6149;SDS011;3106;42.670;23.318;2023-08-17T06:50:34;8.70;;;5.17;;
6149;SDS011;3106;42.670;23.318;2023-08-17T06:53:01;7.70;;;5.43;;
6149;SDS011;3106;42.670;23.318;2023-08-17T06:55:29;8.73;;;4.97;;
6149;SDS011;3106;42.670;23.318;2023-08-17T06:57:56;13.30;;;5.40;;
6149;SDS011;3106;42.670;23.318;2023-08-17T07:00:23;9.20;;;5.13;;
6149;SDS011;3106;42.670;23.318;2023-08-17T07:02:51;8.90;;;5.47;;
6149;SDS011;3106;42.670;23.318;2023-08-17T07:05:19;6.50;;;5.23;;
6149;SDS011;3106;42.670;23.318;2023-08-17T07:07:46;9.03;;;5.60;;
6149;SDS011;3106;42.670;23.318;2023-08-17T07:10:13;9.13;;;5.13;;
6149;SDS011;3106;42.670;23.318;2023-08-17T07:12:40;18.93;;;5.20;;
6149;SDS011;3106;42.670;23.318;2023-08-17T07:15:07;11.03;;;6.10;;
6149;SDS011;3106;42.670;23.318;2023-08-17T07:17:34;9.47;;;5.10;;
6149;SDS011;3106;42.670;23.318;2023-08-17T07:20:01;9.93;;;4.80;;
6149;SDS011;3106;42.670;23.318;2023-08-17T07:22:31;10.70;;;4.40;;
6149;SDS011;3106;42.670;23.318;2023-08-17T07:24:57;9.03;;;3.87;;
6149;SDS011;3106;42.670;23.318;2023-08-17T07:27:24;9.37;;;4.00;;
6149;SDS011;3106;42.670;23.318;2023-08-17T07:29:51;7.40;;;4.60;;
6149;SDS011;3106;42.670;23.318;2023-08-17T07:32:18;7.73;;;4.80;;
6149;SDS011;3106;42.670;23.318;2023-08-17T07:34:46;8.50;;;4.57;;
6149;SDS011;3106;42.670;23.318;2023-08-17T07:37:14;18.87;;;4.83;;
6149;SDS011;3106;42.670;23.318;2023-08-17T07:39:42;3.90;;;3.47;;
6149;SDS011;3106;42.670;23.318;2023-08-17T07:42:09;4.10;;;3.70;;
6149;SDS011;3106;42.670;23.318;2023-08-17T07:44:36;17.27;;;4.80;;
6149;SDS011;3106;42.670;23.318;2023-08-17T07:47:04;8.63;;;4.60;;
6149;SDS011;3106;42.670;23.318;2023-08-17T07:49:31;10.13;;;4.83;;
6149;SDS011;3106;42.670;23.318;2023-08-17T07:51:58;13.43;;;5.17;;
6149;SDS011;3106;42.670;23.318;2023-08-17T07:54:25;14.33;;;9.10;;
6149;SDS011;3106;42.670;23.318;2023-08-17T07:56:54;12.13;;;4.40;;
6149;SDS011;3106;42.670;23.318;2023-08-17T07:59:20;8.50;;;4.17;;
6149;SDS011;3106;42.670;23.318;2023-08-17T08:01:47;15.53;;;5.30;;
6149;SDS011;3106;42.670;23.318;2023-08-17T08:04:14;12.70;;;4.70;;
6149;SDS011;3106;42.670;23.318;2023-08-17T08:06:41;9.00;;;3.90;;
6149;SDS011;3106;42.670;23.318;2023-08-17T08:09:08;14.27;;;4.23;;
6149;SDS011;3106;42.670;23.318;2023-08-17T08:11:35;11.77;;;4.60;;
6149;SDS011;3106;42.670;23.318;2023-08-17T08:14:03;11.63;;;4.23;;
6149;SDS011;3106;42.670;23.318;2023-08-17T08:16:30;6.50;;;4.30;;
6149;SDS011;3106;42.670;23.318;2023-08-17T08:18:57;6.50;;;4.40;;
6149;SDS011;3106;42.670;23.318;2023-08-17T08:21:24;7.83;;;4.30;;
6149;SDS011;3106;42.670;23.318;2023-08-17T08:23:52;6.70;;;4.80;;
6149;SDS011;3106;42.670;23.318;2023-08-17T08:26:19;8.67;;;4.57;;
6149;SDS011;3106;42.670;23.318;2023-08-17T08:28:46;18.53;;;5.53;;
6149;SDS011;3106;42.670;23.318;2023-08-17T08:31:14;7.40;;;4.40;;
6149;SDS011;3106;42.670;23.318;2023-08-17T08:33:41;7.10;;;4.00;;
6149;SDS011;3106;42.670;23.318;2023-08-17T08:36:07;9.27;;;4.50;;
6149;SDS011;3106;42.670;23.318;2023-08-17T08:38:34;6.73;;;4.50;;
6149;SDS011;3106;42.670;23.318;2023-08-17T08:41:02;7.40;;;4.17;;
6149;SDS011;3106;42.670;23.318;2023-08-17T08:43:29;10.00;;;4.73;;
6149;SDS011;3106;42.670;23.318;2023-08-17T08:45:56;8.23;;;4.80;;
6149;SDS011;3106;42.670;23.318;2023-08-17T08:48:27;8.37;;;3.97;;
6149;SDS011;3106;42.670;23.318;2023-08-17T08:50:55;11.77;;;4.70;;
6149;SDS011;3106;42.670;23.318;2023-08-17T08:53:27;8.17;;;4.57;;
6149;SDS011;3106;42.670;23.318;2023-08-17T08:55:58;8.93;;;4.50;;
6149;SDS011;3106;42.670;23.318;2023-08-17T08:58:26;11.50;;;4.83;;
6149;SDS011;3106;42.670;23.318;2023-08-17T09:00:54;7.60;;;4.27;;
6149;SDS011;3106;42.670;23.318;2023-08-17T09:03:21;6.17;;;4.40;;
6149;SDS011;3106;42.670;23.318;2023-08-17T09:05:50;5.30;;;4.13;;
6149;SDS011;3106;42.670;23.318;2023-08-17T09:08:20;6.70;;;4.60;;
6149;SDS011;3106;42.670;23.318;2023-08-17T09:10:48;7.47;;;3.97;;
6149;SDS011;3106;42.670;23.318;2023-08-17T09:13:16;13.40;;;4.83;;
6149;SDS011;3106;42.670;23.318;2023-08-17T09:15:45;6.90;;;4.30;;
6149;SDS011;3106;42.670;23.318;2023-08-17T09:18:12;6.03;;;4.13;;
6149;SDS011;3106;42.670;23.318;2023-08-17T09:20:39;15.20;;;4.50;;
6149;SDS011;3106;42.670;23.318;2023-08-17T09:23:12;5.03;;;4.10;;
6149;SDS011;3106;42.670;23.318;2023-08-17T09:25:40;8.33;;;4.27;;
6149;SDS011;3106;42.670;23.318;2023-08-17T09:28:08;5.03;;;4.10;;
6149;SDS011;3106;42.670;23.318;2023-08-17T09:30:51;12.43;;;4.50;;
6149;SDS011;3106;42.670;23.318;2023-08-17T09:33:20;5.10;;;3.87;;
6149;SDS011;3106;42.670;23.318;2023-08-17T09:35:48;8.80;;;4.20;;
6149;SDS011;3106;42.670;23.318;2023-08-17T09:38:17;8.37;;;4.10;;
6149;SDS011;3106;42.670;23.318;2023-08-17T09:40:45;12.03;;;4.53;;
6149;SDS011;3106;42.670;23.318;2023-08-17T09:43:12;8.27;;;3.80;;
6149;SDS011;3106;42.670;23.318;2023-08-17T09:45:40;3.93;;;3.27;;
6149;SDS011;3106;42.670;23.318;2023-08-17T09:48:09;11.20;;;3.90;;
6149;SDS011;3106;42.670;23.318;2023-08-17T09:50:36;4.70;;;3.47;;
6149;SDS011;3106;42.670;23.318;2023-08-17T09:53:03;11.50;;;4.47;;
6149;SDS011;3106;42.670;23.318;2023-08-17T09:55:32;8.97;;;3.90;;
6149;SDS011;3106;42.670;23.318;2023-08-17T09:57:59;5.63;;;3.53;;
6149;SDS011;3106;42.670;23.318;2023-08-17T10:00:27;13.33;;;3.23;;
6149;SDS011;3106;42.670;23.318;2023-08-17T10:02:54;6.97;;;3.40;;
6149;SDS011;3106;42.670;23.318;2023-08-17T10:05:24;4.83;;;3.47;;
6149;SDS011;3106;42.670;23.318;2023-08-17T10:07:56;5.87;;;3.77;;
6149;SDS011;3106;42.670;23.318;2023-08-17T10:10:26;5.47;;;3.00;;
6149;SDS011;3106;42.670;23.318;2023-08-17T10:12:57;4.10;;;3.50;;
6149;SDS011;3106;42.670;23.318;2023-08-17T10:15:34;4.80;;;3.00;;
6149;SDS011;3106;42.670;23.318;2023-08-17T10:18:07;6.70;;;3.20;;
6149;SDS011;3106;42.670;23.318;2023-08-17T10:20:39;4.90;;;2.93;;
6149;SDS011;3106;42.670;23.318;2023-08-17T10:23:12;5.10;;;3.00;;
6149;SDS011;3106;42.670;23.318;2023-08-17T10:25:43;14.63;;;3.70;;
6149;SDS011;3106;42.670;23.318;2023-08-17T10:28:12;3.70;;;3.13;;
6149;SDS011;3106;42.670;23.318;2023-08-17T10:30:39;4.73;;;2.90;;
6149;SDS011;3106;42.670;23.318;2023-08-17T10:33:06;3.60;;;3.23;;
6149;SDS011;3106;42.670;23.318;2023-08-17T10:35:33;7.60;;;3.60;;
6149;SDS011;3106;42.670;23.318;2023-08-17T10:38:02;6.90;;;3.20;;
6149;SDS011;3106;42.670;23.318;2023-08-17T10:40:34;4.50;;;2.97;;
6149;SDS011;3106;42.670;23.318;2023-08-17T10:43:03;6.83;;;2.67;;
6149;SDS011;3106;42.670;23.318;2023-08-17T10:45:33;3.87;;;3.13;;
6149;SDS011;3106;42.670;23.318;2023-08-17T10:51:00;8.43;;;3.60;;
6149;SDS011;3106;42.670;23.318;2023-08-17T10:53:33;3.40;;;3.03;;
6149;SDS011;3106;42.670;23.318;2023-08-17T10:56:06;8.63;;;3.50;;
6149;SDS011;3106;42.670;23.318;2023-08-17T10:58:34;8.63;;;3.10;;
6149;SDS011;3106;42.670;23.318;2023-08-17T11:01:02;4.67;;;3.00;;
6149;SDS011;3106;42.670;23.318;2023-08-17T11:03:47;7.00;;;4.90;;
6149;SDS011;3106;42.670;23.318;2023-08-17T11:06:14;4.33;;;3.17;;
6149;SDS011;3106;42.670;23.318;2023-08-17T11:08:52;7.60;;;3.47;;
6149;SDS011;3106;42.670;23.318;2023-08-17T11:11:21;6.93;;;3.20;;
6149;SDS011;3106;42.670;23.318;2023-08-17T11:13:48;4.23;;;3.33;;
6149;SDS011;3106;42.670;23.318;2023-08-17T11:16:17;9.47;;;3.70;;
6149;SDS011;3106;42.670;23.318;2023-08-17T11:18:45;5.13;;;4.07;;
6149;SDS011;3106;42.670;23.318;2023-08-17T11:21:12;10.37;;;3.67;;
6149;SDS011;3106;42.670;23.318;2023-08-17T11:23:41;7.40;;;3.47;;
6149;SDS011;3106;42.670;23.318;2023-08-17T11:26:08;4.30;;;3.90;;
6149;SDS011;3106;42.670;23.318;2023-08-17T11:28:35;6.17;;;4.10;;
6149;SDS011;3106;42.670;23.318;2023-08-17T11:31:04;12.77;;;4.03;;
6149;SDS011;3106;42.670;23.318;2023-08-17T11:33:34;5.17;;;4.10;;
6149;SDS011;3106;42.670;23.318;2023-08-17T11:36:03;5.53;;;3.80;;
6149;SDS011;3106;42.670;23.318;2023-08-17T11:38:32;8.87;;;3.70;;
6149;SDS011;3106;42.670;23.318;2023-08-17T11:40:59;6.73;;;3.93;;
6149;SDS011;3106;42.670;23.318;2023-08-17T11:43:28;11.87;;;3.70;;
6149;SDS011;3106;42.670;23.318;2023-08-17T11:45:55;9.27;;;3.93;;
6149;SDS011;3106;42.670;23.318;2023-08-17T11:48:23;5.73;;;3.40;;
6149;SDS011;3106;42.670;23.318;2023-08-17T11:50:52;6.03;;;3.70;;
6149;SDS011;3106;42.670;23.318;2023-08-17T11:53:20;4.83;;;3.70;;
6149;SDS011;3106;42.670;23.318;2023-08-17T11:55:47;5.50;;;3.90;;
6149;SDS011;3106;42.670;23.318;2023-08-17T11:58:14;14.43;;;4.37;;
6149;SDS011;3106;42.670;23.318;2023-08-17T12:00:41;6.33;;;4.30;;
6149;SDS011;3106;42.670;23.318;2023-08-17T12:03:13;8.73;;;4.13;;
6149;SDS011;3106;42.670;23.318;2023-08-17T12:05:41;6.77;;;4.20;;
6149;SDS011;3106;42.670;23.318;2023-08-17T12:08:11;7.97;;;4.10;;
6149;SDS011;3106;42.670;23.318;2023-08-17T12:10:40;5.23;;;4.33;;
6149;SDS011;3106;42.670;23.318;2023-08-17T12:13:10;5.23;;;4.20;;
6149;SDS011;3106;42.670;23.318;2023-08-17T12:15:37;5.53;;;4.10;;
6149;SDS011;3106;42.670;23.318;2023-08-17T12:18:05;4.80;;;4.27;;
6149;SDS011;3106;42.670;23.318;2023-08-17T12:20:32;12.93;;;5.07;;
6149;SDS011;3106;42.670;23.318;2023-08-17T12:23:02;13.47;;;4.07;;
6149;SDS011;3106;42.670;23.318;2023-08-17T12:25:30;9.57;;;4.13;;
6149;SDS011;3106;42.670;23.318;2023-08-17T12:27:58;5.53;;;3.93;;
6149;SDS011;3106;42.670;23.318;2023-08-17T12:30:26;5.90;;;4.53;;
6149;SDS011;3106;42.670;23.318;2023-08-17T12:32:54;10.47;;;4.30;;
6149;SDS011;3106;42.670;23.318;2023-08-17T12:35:21;7.60;;;4.23;;
6149;SDS011;3106;42.670;23.318;2023-08-17T12:37:49;11.33;;;4.30;;
6149;SDS011;3106;42.670;23.318;2023-08-17T12:40:17;6.60;;;4.20;;
6149;SDS011;3106;42.670;23.318;2023-08-17T12:42:45;5.53;;;4.40;;
6149;SDS011;3106;42.670;23.318;2023-08-17T12:45:13;6.87;;;4.30;;
6149;SDS011;3106;42.670;23.318;2023-08-17T12:47:40;6.53;;;4.50;;
6149;SDS011;3106;42.670;23.318;2023-08-17T12:50:08;6.03;;;4.33;;
6149;SDS011;3106;42.670;23.318;2023-08-17T12:52:35;5.33;;;4.83;;
6149;SDS011;3106;42.670;23.318;2023-08-17T12:55:02;10.90;;;5.83;;
6149;SDS011;3106;42.670;23.318;2023-08-17T12:57:30;8.53;;;5.87;;
6149;SDS011;3106;42.670;23.318;2023-08-17T12:59:58;8.67;;;5.30;;
6149;SDS011;3106;42.670;23.318;2023-08-17T13:02:25;8.67;;;5.43;;
6149;SDS011;3106;42.670;23.318;2023-08-17T13:04:52;6.13;;;4.97;;
6149;SDS011;3106;42.670;23.318;2023-08-17T13:07:19;10.53;;;5.50;;
6149;SDS011;3106;42.670;23.318;2023-08-17T13:09:45;6.43;;;4.77;;
6149;SDS011;3106;42.670;23.318;2023-08-17T13:12:12;6.90;;;5.33;;
6149;SDS011;3106;42.670;23.318;2023-08-17T13:14:39;14.53;;;5.33;;
6149;SDS011;3106;42.670;23.318;2023-08-17T13:17:07;9.53;;;4.60;;
6149;SDS011;3106;42.670;23.318;2023-08-17T13:19:34;7.03;;;5.00;;
6149;SDS011;3106;42.670;23.318;2023-08-17T13:22:01;6.80;;;5.13;;
6149;SDS011;3106;42.670;23.318;2023-08-17T13:24:29;18.17;;;5.27;;
6149;SDS011;3106;42.670;23.318;2023-08-17T13:26:56;7.20;;;5.00;;
6149;SDS011;3106;42.670;23.318;2023-08-17T13:29:23;10.93;;;5.57;;
6149;SDS011;3106;42.670;23.318;2023-08-17T13:31:50;6.03;;;5.13;;
6149;SDS011;3106;42.670;23.318;2023-08-17T13:34:18;6.30;;;4.53;;
6149;SDS011;3106;42.670;23.318;2023-08-17T13:36:45;14.13;;;5.60;;
6149;SDS011;3106;42.670;23.318;2023-08-17T13:39:12;7.17;;;4.30;;
6149;SDS011;3106;42.670;23.318;2023-08-17T13:41:39;12.10;;;4.93;;
6149;SDS011;3106;42.670;23.318;2023-08-17T13:44:07;9.07;;;5.13;;
6149;SDS011;3106;42.670;23.318;2023-08-17T13:46:34;8.37;;;4.73;;
6149;SDS011;3106;42.670;23.318;2023-08-17T13:49:01;7.43;;;4.83;;
6149;SDS011;3106;42.670;23.318;2023-08-17T13:51:30;7.00;;;5.30;;
6149;SDS011;3106;42.670;23.318;2023-08-17T13:53:56;10.37;;;5.50;;
6149;SDS011;3106;42.670;23.318;2023-08-17T13:56:23;8.43;;;4.87;;
6149;SDS011;3106;42.670;23.318;2023-08-17T13:58:50;5.97;;;4.93;;
6149;SDS011;3106;42.670;23.318;2023-08-17T14:01:17;7.83;;;4.80;;
6149;SDS011;3106;42.670;23.318;2023-08-17T14:03:44;9.37;;;5.03;;
6149;SDS011;3106;42.670;23.318;2023-08-17T14:06:11;5.83;;;5.10;;
6149;SDS011;3106;42.670;23.318;2023-08-17T14:08:39;9.30;;;4.97;;
6149;SDS011;3106;42.670;23.318;2023-08-17T14:11:06;13.20;;;5.00;;
6149;SDS011;3106;42.670;23.318;2023-08-17T14:13:33;9.73;;;4.90;;
6149;SDS011;3106;42.670;23.318;2023-08-17T14:16:01;13.27;;;5.30;;
6149;SDS011;3106;42.670;23.318;2023-08-17T14:18:28;5.33;;;4.77;;
6149;SDS011;3106;42.670;23.318;2023-08-17T14:20:55;7.93;;;4.80;;
6149;SDS011;3106;42.670;23.318;2023-08-17T14:23:22;8.70;;;4.50;;
6149;SDS011;3106;42.670;23.318;2023-08-17T14:25:50;10.13;;;5.30;;
6149;SDS011;3106;42.670;23.318;2023-08-17T14:28:17;5.30;;;4.80;;
6149;SDS011;3106;42.670;23.318;2023-08-17T14:30:44;9.10;;;4.67;;
6149;SDS011;3106;42.670;23.318;2023-08-17T14:33:11;8.20;;;5.53;;
6149;SDS011;3106;42.670;23.318;2023-08-17T14:35:39;14.70;;;5.10;;
6149;SDS011;3106;42.670;23.318;2023-08-17T14:38:06;9.60;;;4.90;;
6149;SDS011;3106;42.670;23.318;2023-08-17T14:40:34;8.90;;;4.57;;
6149;SDS011;3106;42.670;23.318;2023-08-17T14:43:03;12.27;;;4.97;;
6149;SDS011;3106;42.670;23.318;2023-08-17T14:45:30;11.33;;;4.40;;
6149;SDS011;3106;42.670;23.318;2023-08-17T14:47:57;9.00;;;4.90;;
6149;SDS011;3106;42.670;23.318;2023-08-17T14:50:24;6.07;;;4.57;;
6149;SDS011;3106;42.670;23.318;2023-08-17T14:52:51;10.00;;;4.53;;
6149;SDS011;3106;42.670;23.318;2023-08-17T14:55:18;8.67;;;5.50;;
6149;SDS011;3106;42.670;23.318;2023-08-17T14:57:44;4.53;;;4.13;;
6149;SDS011;3106;42.670;23.318;2023-08-17T15:00:13;9.30;;;4.60;;
6149;SDS011;3106;42.670;23.318;2023-08-17T15:02:40;7.77;;;4.60;;